createdAt,value
2023-01-13T00:00:24.898Z,15.52
2023-01-13T00:00:56.426Z,16.35
2023-01-13T00:01:27.969Z,16.33
2023-01-13T00:01:59.416Z,15.35
2023-01-13T00:02:30.913Z,12.60
2023-01-13T00:03:02.412Z,16.40
2023-01-13T00:03:33.912Z,14.60
2023-01-13T00:04:05.353Z,14.43
2023-01-13T00:04:36.745Z,13.90
2023-01-13T00:05:08.182Z,15.38
2023-01-13T00:05:39.609Z,17.23
2023-01-13T00:06:15.094Z,14.07
2023-01-13T00:06:46.633Z,13.95
2023-01-13T00:07:18.030Z,14.52
2023-01-13T00:07:49.454Z,16.45
2023-01-13T00:08:20.852Z,13.30
2023-01-13T00:08:52.905Z,13.60
2023-01-13T00:09:24.393Z,14.40
2023-01-13T00:09:55.875Z,15.40
2023-01-13T00:10:27.259Z,14.52
2023-01-13T00:10:58.798Z,15.07
2023-01-13T00:11:30.232Z,14.77
2023-01-13T00:12:01.669Z,14.95
2023-01-13T00:12:33.159Z,14.25
2023-01-13T00:13:05.312Z,15.15
2023-01-13T00:13:37.283Z,14.23
2023-01-13T00:14:08.659Z,15.00
2023-01-13T00:14:40.090Z,12.75
2023-01-13T00:15:11.662Z,14.70
2023-01-13T00:15:43.452Z,13.30
2023-01-13T00:16:16.353Z,13.98
2023-01-13T00:16:47.797Z,15.63
2023-01-13T00:17:19.277Z,12.05
2023-01-13T00:17:50.752Z,16.48
2023-01-13T00:18:22.197Z,13.73
2023-01-13T00:18:53.793Z,13.52
2023-01-13T00:19:25.226Z,13.00
2023-01-13T00:19:56.610Z,18.50
2023-01-13T00:20:28.097Z,13.50
2023-01-13T00:21:00.511Z,16.20
2023-01-13T00:21:31.901Z,12.90
2023-01-13T00:22:03.345Z,12.82
2023-01-13T00:22:35.435Z,15.00
2023-01-13T00:23:06.885Z,12.43
2023-01-13T00:23:38.617Z,12.32
2023-01-13T00:24:10.666Z,11.52
2023-01-13T00:24:42.053Z,13.27
2023-01-13T00:25:13.608Z,11.95
2023-01-13T00:25:45.036Z,13.83
2023-01-13T00:26:18.115Z,12.23
2023-01-13T00:26:49.563Z,12.97
2023-01-13T00:27:21.038Z,13.80
2023-01-13T00:27:52.473Z,11.57
2023-01-13T00:28:23.873Z,14.65
2023-01-13T00:28:58.826Z,12.60
2023-01-13T00:29:30.220Z,12.98
2023-01-13T00:30:01.960Z,14.60
2023-01-13T00:30:33.450Z,12.98
2023-01-13T00:31:08.895Z,11.70
2023-01-13T00:31:40.372Z,12.40
2023-01-13T00:32:11.819Z,10.88
2023-01-13T00:32:43.306Z,11.57
2023-01-13T00:33:14.740Z,13.43
2023-01-13T00:33:46.528Z,11.35
2023-01-13T00:34:17.972Z,12.05
2023-01-13T00:34:49.468Z,13.65
2023-01-13T00:35:20.940Z,12.55
2023-01-13T00:35:56.378Z,11.88
2023-01-13T00:36:28.427Z,12.57
2023-01-13T00:36:59.826Z,12.57
2023-01-13T00:37:31.266Z,13.15
2023-01-13T00:38:02.737Z,13.05
2023-01-13T00:38:35.607Z,13.27
2023-01-13T00:39:07.045Z,13.48
2023-01-13T00:39:38.579Z,11.77
2023-01-13T00:40:10.424Z,11.63
2023-01-13T00:40:43.857Z,11.25
2023-01-13T00:41:16.704Z,11.73
2023-01-13T00:41:48.227Z,12.98
2023-01-13T00:42:19.762Z,13.45
2023-01-13T00:42:51.244Z,11.50
2023-01-13T00:43:22.791Z,11.30
2023-01-13T00:43:54.284Z,12.18
2023-01-13T00:44:28.899Z,13.15
2023-01-13T00:45:00.385Z,13.43
2023-01-13T00:45:31.820Z,13.02
2023-01-13T00:46:03.991Z,13.27
2023-01-13T00:46:35.485Z,11.13
2023-01-13T00:47:06.906Z,9.73
2023-01-13T00:47:38.396Z,11.25
2023-01-13T00:48:09.937Z,10.85
2023-01-13T00:48:41.626Z,10.98
2023-01-13T00:49:12.998Z,10.02
2023-01-13T00:49:44.591Z,11.05
2023-01-13T00:50:16.217Z,11.80
2023-01-13T00:50:54.393Z,10.57
2023-01-13T00:51:25.816Z,10.65
2023-01-13T00:51:57.239Z,10.98
2023-01-13T00:52:28.647Z,9.90
2023-01-13T00:53:00.351Z,10.15
2023-01-13T00:53:36.339Z,12.27
2023-01-13T00:54:07.830Z,11.50
2023-01-13T00:54:39.249Z,11.13
2023-01-13T00:55:10.643Z,11.52
2023-01-13T00:55:42.043Z,12.20
2023-01-13T00:56:15.057Z,10.20
2023-01-13T00:56:46.521Z,10.70
2023-01-13T00:57:17.929Z,11.00
2023-01-13T00:57:49.364Z,9.77
2023-01-13T00:58:20.795Z,13.27
2023-01-13T00:58:52.289Z,12.10
2023-01-13T00:59:23.722Z,11.98
2023-01-13T00:59:55.269Z,11.63
2023-01-13T01:00:26.732Z,10.48
2023-01-13T01:01:06.072Z,11.18
2023-01-13T01:01:38.012Z,9.57
2023-01-13T01:02:09.620Z,12.38
2023-01-13T01:02:41.197Z,9.85
2023-01-13T01:03:12.648Z,13.32
2023-01-13T01:03:44.126Z,12.05
2023-01-13T01:04:15.621Z,13.00
2023-01-13T01:04:47.129Z,10.95
2023-01-13T01:05:18.540Z,10.23
2023-01-13T01:05:49.986Z,12.30
2023-01-13T01:06:22.700Z,10.88
2023-01-13T01:06:54.090Z,14.02
2023-01-13T01:07:25.520Z,14.70
2023-01-13T01:07:56.910Z,11.85
2023-01-13T01:08:28.495Z,11.55
2023-01-13T01:08:59.985Z,11.88
2023-01-13T01:09:31.480Z,10.75
2023-01-13T01:10:02.905Z,13.93
2023-01-13T01:10:34.334Z,11.18
2023-01-13T01:11:07.274Z,12.18
2023-01-13T01:11:38.771Z,12.02
2023-01-13T01:12:10.224Z,12.98
2023-01-13T01:12:41.686Z,11.95
2023-01-13T01:13:13.480Z,10.60
2023-01-13T01:13:45.585Z,11.93
2023-01-13T01:14:16.966Z,12.20
2023-01-13T01:14:48.449Z,10.63
2023-01-13T01:15:19.858Z,13.10
2023-01-13T01:15:51.330Z,10.75
2023-01-13T01:16:23.593Z,10.27
2023-01-13T01:16:55.036Z,11.88
2023-01-13T01:17:27.805Z,9.80
2023-01-13T01:17:59.234Z,11.02
2023-01-13T01:18:30.678Z,11.40
2023-01-13T01:19:02.338Z,11.18
2023-01-13T01:19:33.751Z,10.20
2023-01-13T01:20:05.344Z,11.07
2023-01-13T01:20:37.303Z,11.63
2023-01-13T01:21:09.489Z,10.23
2023-01-13T01:21:40.929Z,10.80
2023-01-13T01:22:12.398Z,11.30
2023-01-13T01:22:43.816Z,10.40
2023-01-13T01:23:15.261Z,12.60
2023-01-13T01:23:46.686Z,10.20
2023-01-13T01:24:18.122Z,10.77
2023-01-13T01:24:49.560Z,12.27
2023-01-13T01:25:20.998Z,10.48
2023-01-13T01:25:52.407Z,11.18
2023-01-13T01:26:24.716Z,10.25
2023-01-13T01:26:56.138Z,10.55
2023-01-13T01:27:27.670Z,9.25
2023-01-13T01:27:59.257Z,10.80
2023-01-13T01:28:30.723Z,11.23
2023-01-13T01:29:02.559Z,12.23
2023-01-13T01:29:34.073Z,11.35
2023-01-13T01:30:05.778Z,11.10
2023-01-13T01:30:38.750Z,10.35
2023-01-13T01:31:12.494Z,10.93
2023-01-13T01:31:44.013Z,11.75
2023-01-13T01:32:15.515Z,11.23
2023-01-13T01:32:46.953Z,10.55
2023-01-13T01:33:18.395Z,11.65
2023-01-13T01:33:49.831Z,11.35
2023-01-13T01:34:21.269Z,10.07
2023-01-13T01:34:52.656Z,11.00
2023-01-13T01:35:24.550Z,12.10
2023-01-13T01:35:55.988Z,12.77
2023-01-13T01:36:27.843Z,12.15
2023-01-13T01:36:59.321Z,11.80
2023-01-13T01:37:30.729Z,9.80
2023-01-13T01:38:02.147Z,9.68
2023-01-13T01:38:33.739Z,10.27
2023-01-13T01:39:05.220Z,11.32
2023-01-13T01:39:36.668Z,9.48
2023-01-13T01:40:08.563Z,10.88
2023-01-13T01:40:40.021Z,10.00
2023-01-13T01:41:15.749Z,11.95
2023-01-13T01:41:47.225Z,11.18
2023-01-13T01:42:18.769Z,11.75
2023-01-13T01:42:50.203Z,9.48
2023-01-13T01:43:22.512Z,12.88
2023-01-13T01:43:55.077Z,10.60
2023-01-13T01:44:41.567Z,11.05
2023-01-13T01:45:18.956Z,12.57
2023-01-13T01:45:50.376Z,13.07
2023-01-13T01:46:21.892Z,12.95
2023-01-13T01:46:53.607Z,11.60
2023-01-13T01:47:25.772Z,10.35
2023-01-13T01:47:59.200Z,11.52
2023-01-13T01:48:34.480Z,11.68
2023-01-13T01:49:05.876Z,9.50
2023-01-13T01:49:37.863Z,9.15
2023-01-13T01:50:10.045Z,9.98
2023-01-13T01:50:41.462Z,10.32
2023-01-13T01:51:13.293Z,10.93
2023-01-13T01:51:50.175Z,10.07
2023-01-13T01:52:25.232Z,10.82
2023-01-13T01:53:02.770Z,11.23
2023-01-13T01:53:34.257Z,10.80
2023-01-13T01:54:07.740Z,11.15
2023-01-13T01:54:48.094Z,10.93
2023-01-13T01:55:21.591Z,9.35
2023-01-13T01:55:53.167Z,10.90
2023-01-13T01:56:24.607Z,12.95
2023-01-13T01:56:56.244Z,10.30
2023-01-13T01:57:30.820Z,10.70
2023-01-13T01:58:12.886Z,13.93
2023-01-13T01:58:46.790Z,11.52
2023-01-13T01:59:18.323Z,10.95
2023-01-13T01:59:49.824Z,10.57
2023-01-13T02:00:21.715Z,10.10
2023-01-13T02:00:53.180Z,9.57
2023-01-13T02:01:24.762Z,10.57
2023-01-13T02:01:56.363Z,13.00
2023-01-13T02:02:29.122Z,8.88
2023-01-13T02:03:01.103Z,9.88
2023-01-13T02:03:33.045Z,10.13
2023-01-13T02:04:11.599Z,9.70
2023-01-13T02:04:46.572Z,14.35
2023-01-13T02:05:18.605Z,10.65
2023-01-13T02:05:50.547Z,10.32
2023-01-13T02:06:22.545Z,11.30
2023-01-13T02:06:54.119Z,12.00
2023-01-13T02:07:29.900Z,11.55
2023-01-13T02:08:01.515Z,9.88
2023-01-13T02:08:33.060Z,13.27
2023-01-13T02:09:04.922Z,12.70
2023-01-13T02:09:36.613Z,10.95
2023-01-13T02:10:09.301Z,10.55
2023-01-13T02:10:41.426Z,11.07
2023-01-13T02:11:29.354Z,12.25
2023-01-13T02:12:00.806Z,11.23
2023-01-13T02:12:32.563Z,11.40
2023-01-13T02:13:05.684Z,11.55
2023-01-13T02:13:37.129Z,9.73
2023-01-13T02:14:08.560Z,10.93
2023-01-13T02:14:40.962Z,12.98
2023-01-13T02:15:17.115Z,11.82
2023-01-13T02:15:48.524Z,9.88
2023-01-13T02:16:23.046Z,11.80
2023-01-13T02:17:03.872Z,10.55
2023-01-13T02:17:35.315Z,11.20
2023-01-13T02:18:18.998Z,11.50
2023-01-13T02:18:53.236Z,13.75
2023-01-13T02:19:36.917Z,12.77
2023-01-13T02:20:18.525Z,10.93
2023-01-13T02:21:10.249Z,12.02
2023-01-13T02:22:07.951Z,10.88
2023-01-13T02:22:42.455Z,10.93
2023-01-13T02:23:13.903Z,12.10
2023-01-13T02:24:00.327Z,11.23
2023-01-13T02:24:51.998Z,10.48
2023-01-13T02:25:38.955Z,11.32
2023-01-13T02:26:35.784Z,11.17
2023-01-13T02:27:21.914Z,9.15
2023-01-13T02:28:19.002Z,13.33
2023-01-13T02:28:53.563Z,12.52
2023-01-13T02:29:30.966Z,11.07
2023-01-13T02:30:17.530Z,11.88
2023-01-13T02:30:51.743Z,11.43
2023-01-13T02:31:23.236Z,12.70
2023-01-13T02:31:59.237Z,11.68
2023-01-13T02:32:35.850Z,13.48
2023-01-13T02:33:17.354Z,10.57
2023-01-13T02:33:51.852Z,11.75
2023-01-13T02:34:27.200Z,9.70
2023-01-13T02:35:24.891Z,10.65
2023-01-13T02:35:59.644Z,10.00
2023-01-13T02:36:51.315Z,11.18
2023-01-13T02:37:27.879Z,10.82
2023-01-13T02:38:00.338Z,10.80
2023-01-13T02:38:37.455Z,12.15
2023-01-13T02:39:08.887Z,10.18
2023-01-13T02:39:50.162Z,11.77
2023-01-13T02:40:24.208Z,12.35
2023-01-13T02:40:58.107Z,11.05
2023-01-13T02:41:34.251Z,10.32
2023-01-13T02:42:10.449Z,11.80
2023-01-13T02:42:48.187Z,10.00
2023-01-13T02:43:19.630Z,13.98
2023-01-13T02:43:52.242Z,11.20
2023-01-13T02:44:28.695Z,10.25
2023-01-13T02:45:04.531Z,11.45
2023-01-13T02:45:39.746Z,12.15
2023-01-13T02:46:17.695Z,10.50
2023-01-13T02:46:54.968Z,10.25
2023-01-13T02:47:26.855Z,9.32
2023-01-13T02:47:59.392Z,9.32
2023-01-13T02:48:31.690Z,10.15
2023-01-13T02:49:05.696Z,11.15
2023-01-13T02:49:50.298Z,10.15
2023-01-13T02:50:27.871Z,10.57
2023-01-13T02:51:07.703Z,11.68
2023-01-13T02:51:40.778Z,12.90
2023-01-13T02:52:30.931Z,13.13
2023-01-13T02:53:05.271Z,11.50
2023-01-13T02:53:59.785Z,11.20
2023-01-13T02:54:31.703Z,10.60
2023-01-13T02:55:11.491Z,9.82
2023-01-13T02:55:46.128Z,10.63
2023-01-13T02:56:18.031Z,12.98
2023-01-13T02:56:50.655Z,11.10
2023-01-13T02:57:23.095Z,11.60
2023-01-13T02:57:55.557Z,11.75
2023-01-13T02:58:28.793Z,9.77
2023-01-13T02:59:00.892Z,10.40
2023-01-13T02:59:32.663Z,11.68
2023-01-13T03:00:05.912Z,10.85
2023-01-13T03:00:37.928Z,10.70
2023-01-13T03:01:09.536Z,12.15
2023-01-13T03:01:42.611Z,11.63
2023-01-13T03:02:16.707Z,13.15
2023-01-13T03:02:49.013Z,9.85
2023-01-13T03:03:20.535Z,11.82
2023-01-13T03:03:52.006Z,12.38
2023-01-13T03:05:01.971Z,11.13
2023-01-13T03:05:33.665Z,10.07
2023-01-13T03:06:05.034Z,12.07
2023-01-13T03:06:47.575Z,11.73
2023-01-13T03:07:21.637Z,11.88
2023-01-13T03:08:14.939Z,12.15
2023-01-13T03:08:51.139Z,10.80
2023-01-13T03:09:26.410Z,10.43
2023-01-13T03:10:11.516Z,11.53
2023-01-13T03:10:52.323Z,12.00
2023-01-13T03:11:25.715Z,10.38
2023-01-13T03:12:09.992Z,11.40
2023-01-13T03:12:52.433Z,11.05
2023-01-13T03:13:29.670Z,11.00
2023-01-13T03:14:06.795Z,10.05
2023-01-13T03:14:57.496Z,11.18
2023-01-13T03:15:43.527Z,11.90
2023-01-13T03:16:14.952Z,12.75
2023-01-13T03:16:49.170Z,14.27
2023-01-13T03:17:20.546Z,10.77
2023-01-13T03:17:57.597Z,11.65
2023-01-13T03:18:35.804Z,10.70
2023-01-13T03:19:13.585Z,13.05
2023-01-13T03:19:44.977Z,12.65
2023-01-13T03:20:22.135Z,11.73
2023-01-13T03:21:25.879Z,10.75
2023-01-13T03:22:01.579Z,10.98
2023-01-13T03:22:49.953Z,11.65
2023-01-13T03:23:26.106Z,12.38
2023-01-13T03:24:12.562Z,14.55
2023-01-13T03:25:10.051Z,13.20
2023-01-13T03:25:46.548Z,11.05
2023-01-13T03:26:24.897Z,11.65
2023-01-13T03:27:19.393Z,9.70
2023-01-13T03:27:53.163Z,11.05
2023-01-13T03:28:27.376Z,13.07
2023-01-13T03:29:05.925Z,11.93
2023-01-13T03:29:40.021Z,10.00
2023-01-13T03:30:17.869Z,10.48
2023-01-13T03:30:54.631Z,9.88
2023-01-13T03:31:28.276Z,11.88
2023-01-13T03:32:01.695Z,10.40
2023-01-13T03:32:42.599Z,12.77
2023-01-13T03:33:19.587Z,12.98
2023-01-13T03:33:56.220Z,13.48
2023-01-13T03:34:33.045Z,11.52
2023-01-13T03:35:07.551Z,13.32
2023-01-13T03:35:43.403Z,13.50
2023-01-13T03:36:16.472Z,12.53
2023-01-13T03:36:49.295Z,14.23
2023-01-13T03:37:22.831Z,12.05
2023-01-13T03:38:01.085Z,11.57
2023-01-13T03:38:40.903Z,14.13
2023-01-13T03:39:16.288Z,12.93
2023-01-13T03:39:51.328Z,11.98
2023-01-13T03:40:25.881Z,13.23
2023-01-13T03:40:59.051Z,13.27
2023-01-13T03:41:33.616Z,13.02
2023-01-13T03:42:08.384Z,9.95
2023-01-13T03:42:41.609Z,12.57
2023-01-13T03:43:16.164Z,13.82
2023-01-13T03:43:51.191Z,10.35
2023-01-13T03:44:44.289Z,12.32
2023-01-13T03:45:17.813Z,12.50
2023-01-13T03:45:53.233Z,12.90
2023-01-13T03:46:33.950Z,11.82
2023-01-13T03:47:11.384Z,11.02
2023-01-13T03:47:46.242Z,11.30
2023-01-13T03:48:19.477Z,10.80
2023-01-13T03:48:54.807Z,12.18
2023-01-13T03:49:52.506Z,12.60
2023-01-13T03:50:29.373Z,10.90
2023-01-13T03:51:04.911Z,9.10
2023-01-13T03:51:38.967Z,11.95
2023-01-13T03:52:13.472Z,10.77
2023-01-13T03:52:48.951Z,9.10
2023-01-13T03:53:28.524Z,10.00
2023-01-13T03:54:02.385Z,11.02
2023-01-13T03:54:35.957Z,11.20
2023-01-13T03:55:11.737Z,11.57
2023-01-13T03:55:49.329Z,11.02
2023-01-13T03:56:23.751Z,11.18
2023-01-13T03:56:57.175Z,14.32
2023-01-13T03:57:31.423Z,11.05
2023-01-13T03:58:23.089Z,10.77
2023-01-13T03:58:54.534Z,12.88
2023-01-13T03:59:28.841Z,12.63
2023-01-13T04:00:01.595Z,11.15
2023-01-13T04:00:37.490Z,12.20
2023-01-13T04:01:23.151Z,12.18
2023-01-13T04:02:00.161Z,10.52
2023-01-13T04:02:40.573Z,10.73
2023-01-13T04:03:13.431Z,12.40
2023-01-13T04:03:44.794Z,9.32
2023-01-13T04:04:19.491Z,11.82
2023-01-13T04:04:54.981Z,10.30
2023-01-13T04:05:27.300Z,9.93
2023-01-13T04:06:03.068Z,7.88
2023-01-13T04:06:42.551Z,10.88
2023-01-13T04:07:17.062Z,10.63
2023-01-13T04:08:07.336Z,10.88
2023-01-13T04:08:41.383Z,9.32
2023-01-13T04:09:35.765Z,10.30
2023-01-13T04:10:09.109Z,11.77
2023-01-13T04:10:45.804Z,11.57
2023-01-13T04:11:37.926Z,12.00
2023-01-13T04:12:24.568Z,10.43
2023-01-13T04:12:58.771Z,12.13
2023-01-13T04:13:31.689Z,9.63
2023-01-13T04:14:03.669Z,10.02
2023-01-13T04:14:35.743Z,12.40
2023-01-13T04:15:07.499Z,10.35
2023-01-13T04:15:40.770Z,10.95
2023-01-13T04:16:12.403Z,11.40
2023-01-13T04:16:43.902Z,13.38
2023-01-13T04:17:15.895Z,10.27
2023-01-13T04:17:47.339Z,12.35
2023-01-13T04:18:23.788Z,9.43
2023-01-13T04:18:55.233Z,11.68
2023-01-13T04:19:26.668Z,12.32
2023-01-13T04:19:58.044Z,10.98
2023-01-13T04:20:29.387Z,10.50
2023-01-13T04:21:01.737Z,12.30
2023-01-13T04:21:34.503Z,11.63
2023-01-13T04:22:05.919Z,12.60
2023-01-13T04:22:37.353Z,11.60
2023-01-13T04:23:09.032Z,12.68
2023-01-13T04:23:40.543Z,13.55
2023-01-13T04:24:11.970Z,12.23
2023-01-13T04:24:43.345Z,13.20
2023-01-13T04:25:14.788Z,13.30
2023-01-13T04:25:46.731Z,14.40
2023-01-13T04:26:18.469Z,12.55
2023-01-13T04:26:49.852Z,12.55
2023-01-13T04:27:21.216Z,12.82
2023-01-13T04:27:52.589Z,11.63
2023-01-13T04:28:24.643Z,11.40
2023-01-13T04:28:56.068Z,11.32
2023-01-13T04:29:27.593Z,11.95
2023-01-13T04:29:59.044Z,10.50
2023-01-13T04:30:30.383Z,12.65
2023-01-13T04:31:02.015Z,10.95
2023-01-13T04:31:33.404Z,13.07
2023-01-13T04:32:04.797Z,12.40
2023-01-13T04:32:36.182Z,14.13
2023-01-13T04:33:07.934Z,10.93
2023-01-13T04:33:39.375Z,10.23
2023-01-13T04:34:10.770Z,13.80
2023-01-13T04:34:42.155Z,14.65
2023-01-13T04:35:13.628Z,11.57
2023-01-13T04:35:45.839Z,12.70
2023-01-13T04:36:17.215Z,10.82
2023-01-13T04:36:48.610Z,10.32
2023-01-13T04:37:20.037Z,11.18
2023-01-13T04:37:51.480Z,12.93
2023-01-13T04:38:22.941Z,12.30
2023-01-13T04:38:54.549Z,11.75
2023-01-13T04:39:25.889Z,12.27
2023-01-13T04:39:57.275Z,12.73
2023-01-13T04:40:28.882Z,12.27
2023-01-13T04:41:00.303Z,9.73
2023-01-13T04:41:31.746Z,14.10
2023-01-13T04:42:03.198Z,13.82
2023-01-13T04:42:34.617Z,12.43
2023-01-13T04:43:06.050Z,12.00
2023-01-13T04:43:37.510Z,12.05
2023-01-13T04:44:08.983Z,13.82
2023-01-13T04:44:40.366Z,12.32
2023-01-13T04:45:12.264Z,10.50
2023-01-13T04:45:43.871Z,12.98
2023-01-13T04:46:15.294Z,10.93
2023-01-13T04:46:46.795Z,10.68
2023-01-13T04:47:18.264Z,11.50
2023-01-13T04:47:52.419Z,13.00
2023-01-13T04:48:23.771Z,10.05
2023-01-13T04:48:55.252Z,13.45
2023-01-13T04:49:26.684Z,11.80
2023-01-13T04:49:58.142Z,12.45
2023-01-13T04:50:29.558Z,12.38
2023-01-13T04:51:01.309Z,11.07
2023-01-13T04:51:32.646Z,11.88
2023-01-13T04:52:04.160Z,11.30
2023-01-13T04:52:35.658Z,11.88
2023-01-13T04:53:07.106Z,9.98
2023-01-13T04:53:38.493Z,13.85
2023-01-13T04:54:10.428Z,9.07
2023-01-13T04:54:41.819Z,10.30
2023-01-13T04:55:13.216Z,11.77
2023-01-13T04:55:44.539Z,10.97
2023-01-13T04:56:15.875Z,11.15
2023-01-13T04:56:47.326Z,11.20
2023-01-13T04:57:18.804Z,12.02
2023-01-13T04:57:50.306Z,11.02
2023-01-13T04:58:21.730Z,12.68
2023-01-13T04:58:53.083Z,10.07
2023-01-13T04:59:24.500Z,10.93
2023-01-13T04:59:55.884Z,11.30
2023-01-13T05:00:27.338Z,11.07
2023-01-13T05:00:58.797Z,12.07
2023-01-13T05:01:34.626Z,12.15
2023-01-13T05:02:06.104Z,11.23
2023-01-13T05:02:37.867Z,10.48
2023-01-13T05:03:09.278Z,14.18
2023-01-13T05:03:40.656Z,11.02
2023-01-13T05:04:11.996Z,11.73
2023-01-13T05:04:43.460Z,8.48
2023-01-13T05:05:14.924Z,10.18
2023-01-13T05:05:50.549Z,9.25
2023-01-13T05:06:21.950Z,10.32
2023-01-13T05:06:53.347Z,9.20
2023-01-13T05:07:27.383Z,9.68
2023-01-13T05:07:58.845Z,9.85
2023-01-13T05:08:30.202Z,11.68
2023-01-13T05:09:01.632Z,10.13
2023-01-13T05:09:33.020Z,11.07
2023-01-13T05:10:04.563Z,10.77
2023-01-13T05:10:36.554Z,12.32
2023-01-13T05:11:08.313Z,12.35
2023-01-13T05:11:39.737Z,9.85
2023-01-13T05:12:11.389Z,10.85
2023-01-13T05:12:42.731Z,10.68
2023-01-13T05:13:14.116Z,10.77
2023-01-13T05:13:45.484Z,13.73
2023-01-13T05:14:16.838Z,10.40
2023-01-13T05:14:48.195Z,11.60
2023-01-13T05:15:19.701Z,10.23
2023-01-13T05:15:51.164Z,12.07
2023-01-13T05:16:22.644Z,12.30
2023-01-13T05:16:55.392Z,11.90
2023-01-13T05:17:26.842Z,11.85
2023-01-13T05:17:58.426Z,13.18
2023-01-13T05:18:30.684Z,13.30
2023-01-13T05:19:02.017Z,12.85
2023-01-13T05:19:34.763Z,13.77
2023-01-13T05:20:06.540Z,12.70
2023-01-13T05:20:37.917Z,12.57
2023-01-13T05:21:09.351Z,13.95
2023-01-13T05:21:40.738Z,10.65
2023-01-13T05:22:12.225Z,14.05
2023-01-13T05:22:43.727Z,12.63
2023-01-13T05:23:15.103Z,10.83
2023-01-13T05:23:46.543Z,15.65
2023-01-13T05:24:17.985Z,14.90
2023-01-13T05:24:49.587Z,11.25
2023-01-13T05:25:21.054Z,11.90
2023-01-13T05:25:52.491Z,12.75
2023-01-13T05:26:23.935Z,12.00
2023-01-13T05:26:55.317Z,12.15
2023-01-13T05:27:30.136Z,11.63
2023-01-13T05:28:01.507Z,11.75
2023-01-13T05:28:33.432Z,12.02
2023-01-13T05:29:04.763Z,12.20
2023-01-13T05:29:36.190Z,11.77
2023-01-13T05:30:07.982Z,15.43
2023-01-13T05:30:40.681Z,13.52
2023-01-13T05:31:14.680Z,12.85
2023-01-13T05:31:48.432Z,12.88
2023-01-13T05:32:19.829Z,13.68
2023-01-13T05:32:51.273Z,14.82
2023-01-13T05:33:22.641Z,12.25
2023-01-13T05:33:54.035Z,12.02
2023-01-13T05:34:25.424Z,12.38
2023-01-13T05:34:56.868Z,12.88
2023-01-13T05:35:28.197Z,14.77
2023-01-13T05:36:01.992Z,11.82
2023-01-13T05:36:33.483Z,14.48
2023-01-13T05:37:04.915Z,14.97
2023-01-13T05:37:36.303Z,13.32
2023-01-13T05:38:07.686Z,15.18
2023-01-13T05:38:39.073Z,13.77
2023-01-13T05:39:10.514Z,12.35
2023-01-13T05:39:41.946Z,12.98
2023-01-13T05:40:14.565Z,11.82
2023-01-13T05:40:45.963Z,13.10
2023-01-13T05:41:17.387Z,11.95
2023-01-13T05:41:48.790Z,11.80
2023-01-13T05:42:20.213Z,12.18
2023-01-13T05:43:00.765Z,14.18
2023-01-13T05:43:32.180Z,14.65
2023-01-13T05:44:03.674Z,11.88
2023-01-13T05:44:35.132Z,13.48
2023-01-13T05:45:06.719Z,14.10
2023-01-13T05:45:38.098Z,15.00
2023-01-13T05:46:09.855Z,14.23
2023-01-13T05:46:41.440Z,14.40
2023-01-13T05:47:12.860Z,11.60
2023-01-13T05:47:44.222Z,14.35
2023-01-13T05:48:16.062Z,12.30
2023-01-13T05:48:47.495Z,15.55
2023-01-13T05:49:18.919Z,12.50
2023-01-13T05:49:50.299Z,12.65
2023-01-13T05:50:21.759Z,13.27
2023-01-13T05:50:53.502Z,13.40
2023-01-13T05:51:24.935Z,13.48
2023-01-13T05:51:56.370Z,14.13
2023-01-13T05:52:27.912Z,15.55
2023-01-13T05:52:59.347Z,11.95
2023-01-13T05:53:30.895Z,13.65
2023-01-13T05:54:02.275Z,13.95
2023-01-13T05:54:33.660Z,12.98
2023-01-13T05:55:05.402Z,13.80
2023-01-13T05:55:38.698Z,16.67
2023-01-13T05:56:10.669Z,12.80
2023-01-13T05:56:42.077Z,12.13
2023-01-13T05:57:13.529Z,13.43
2023-01-13T05:57:44.948Z,13.52
2023-01-13T05:58:16.916Z,11.98
2023-01-13T05:58:48.329Z,13.98
2023-01-13T05:59:19.720Z,12.15
2023-01-13T05:59:51.102Z,14.40
2023-01-13T06:00:22.653Z,12.48
2023-01-13T06:00:59.068Z,16.17
2023-01-13T06:01:30.510Z,11.57
2023-01-13T06:02:01.924Z,13.05
2023-01-13T06:02:33.393Z,14.05
2023-01-13T06:03:05.310Z,14.55
2023-01-13T06:03:37.260Z,14.35
2023-01-13T06:04:08.625Z,12.40
2023-01-13T06:04:40.117Z,14.85
2023-01-13T06:05:11.530Z,15.68
2023-01-13T06:05:42.953Z,14.25
2023-01-13T06:06:14.359Z,15.85
2023-01-13T06:06:45.732Z,14.60
2023-01-13T06:07:17.122Z,14.77
2023-01-13T06:07:48.553Z,14.90
2023-01-13T06:08:19.899Z,15.65
2023-01-13T06:08:51.281Z,15.02
2023-01-13T06:09:22.662Z,14.55
2023-01-13T06:09:54.046Z,18.55
2023-01-13T06:10:26.261Z,16.13
2023-01-13T06:10:57.688Z,16.20
2023-01-13T06:11:29.127Z,15.75
2023-01-13T06:12:00.645Z,18.77
2023-01-13T06:12:32.074Z,18.23
2023-01-13T06:13:03.950Z,17.08
2023-01-13T06:13:35.347Z,18.50
2023-01-13T06:14:06.750Z,18.30
2023-01-13T06:14:38.157Z,19.67
2023-01-13T06:15:09.700Z,17.92
2023-01-13T06:15:41.136Z,18.38
2023-01-13T06:16:12.574Z,16.80
2023-01-13T06:16:44.027Z,17.67
2023-01-13T06:17:15.920Z,18.38
2023-01-13T06:17:47.392Z,16.80
2023-01-13T06:18:18.905Z,16.70
2023-01-13T06:18:50.320Z,19.45
2023-01-13T06:19:21.716Z,15.77
2023-01-13T06:19:53.153Z,16.48
2023-01-13T06:20:24.893Z,18.38
2023-01-13T06:20:56.347Z,16.98
2023-01-13T06:21:27.732Z,18.35
2023-01-13T06:21:59.258Z,17.17
2023-01-13T06:22:30.953Z,16.67
2023-01-13T06:23:02.387Z,16.85
2023-01-13T06:23:33.824Z,15.57
2023-01-13T06:24:05.720Z,15.60
2023-01-13T06:24:37.315Z,14.45
2023-01-13T06:25:17.085Z,15.57
2023-01-13T06:26:07.276Z,18.33
2023-01-13T06:26:39.479Z,15.93
2023-01-13T06:27:10.913Z,15.27
2023-01-13T06:27:42.341Z,15.40
2023-01-13T06:28:13.931Z,17.63
2023-01-13T06:28:45.442Z,19.05
2023-01-13T06:29:16.844Z,18.75
2023-01-13T06:29:48.657Z,18.17
2023-01-13T06:30:20.105Z,16.98
2023-01-13T06:30:53.343Z,17.77
2023-01-13T06:31:25.592Z,15.95
2023-01-13T06:31:57.175Z,17.33
2023-01-13T06:32:31.392Z,17.83
2023-01-13T06:33:04.395Z,15.40
2023-01-13T06:33:40.962Z,18.48
2023-01-13T06:34:13.530Z,18.33
2023-01-13T06:34:47.467Z,16.85
2023-01-13T06:35:20.566Z,17.67
2023-01-13T06:35:56.850Z,16.77
2023-01-13T06:36:35.763Z,14.68
2023-01-13T06:37:07.295Z,16.20
2023-01-13T06:37:39.044Z,16.83
2023-01-13T06:38:13.301Z,18.05
2023-01-13T06:38:47.440Z,18.63
2023-01-13T06:39:20.484Z,16.85
2023-01-13T06:39:52.935Z,17.40
2023-01-13T06:40:24.626Z,18.20
2023-01-13T06:40:56.065Z,16.30
2023-01-13T06:41:27.818Z,15.55
2023-01-13T06:41:59.512Z,14.65
2023-01-13T06:42:33.042Z,15.43
2023-01-13T06:43:04.575Z,16.73
2023-01-13T06:43:36.065Z,28.00
2023-01-13T06:44:08.228Z,24.20
2023-01-13T06:44:39.718Z,15.15
2023-01-13T06:45:11.111Z,16.08
2023-01-13T06:45:44.476Z,15.45
2023-01-13T06:46:16.009Z,14.75
2023-01-13T06:46:47.537Z,13.73
2023-01-13T06:47:19.075Z,15.95
2023-01-13T06:47:50.687Z,14.82
2023-01-13T06:48:23.414Z,17.38
2023-01-13T06:48:54.792Z,15.88
2023-01-13T06:49:26.138Z,13.13
2023-01-13T06:49:57.509Z,18.63
2023-01-13T06:50:28.873Z,16.42
2023-01-13T06:51:00.486Z,15.55
2023-01-13T06:51:31.852Z,17.33
2023-01-13T06:52:03.273Z,16.73
2023-01-13T06:52:34.688Z,15.85
2023-01-13T06:53:06.079Z,14.77
2023-01-13T06:53:37.437Z,16.30
2023-01-13T06:54:08.841Z,16.27
2023-01-13T06:54:40.249Z,15.55
2023-01-13T06:55:11.681Z,17.45
2023-01-13T06:55:43.119Z,16.20
2023-01-13T06:56:14.499Z,16.33
2023-01-13T06:56:45.848Z,17.02
2023-01-13T06:57:17.225Z,15.23
2023-01-13T06:57:55.831Z,17.25
2023-01-13T06:58:27.274Z,14.85
2023-01-13T06:58:58.712Z,14.32
2023-01-13T06:59:30.164Z,14.77
2023-01-13T07:00:01.628Z,18.17
2023-01-13T07:00:33.137Z,19.17
2023-01-13T07:01:04.672Z,14.98
2023-01-13T07:01:36.174Z,17.85
2023-01-13T07:02:07.609Z,14.50
2023-01-13T07:02:39.201Z,17.20
2023-01-13T07:03:14.595Z,17.67
2023-01-13T07:03:46.095Z,18.13
2023-01-13T07:04:17.535Z,14.85
2023-01-13T07:04:48.979Z,15.68
2023-01-13T07:05:20.885Z,17.20
2023-01-13T07:05:53.545Z,15.90
2023-01-13T07:06:25.044Z,16.23
2023-01-13T07:06:56.510Z,14.73
2023-01-13T07:07:27.853Z,15.90
2023-01-13T07:07:59.180Z,16.65
2023-01-13T07:08:31.231Z,15.82
2023-01-13T07:09:03.066Z,16.52
2023-01-13T07:09:34.499Z,15.85
2023-01-13T07:10:06.160Z,17.70
2023-01-13T07:10:37.665Z,16.70
2023-01-13T07:11:09.035Z,17.05
2023-01-13T07:11:40.371Z,16.35
2023-01-13T07:12:11.963Z,17.42
2023-01-13T07:12:43.355Z,17.52